Time;durP1;ratioP1;P1;durP2;ratioP2;P2;SDS_P1;SDS_P2;PMS_P1;PMS_P2;Temp;Humidity;BMP_temperature;BMP_pressure;BME280_temperature;BME280_humidity;BME280_pressure;Samples;Min_cycle;Max_cycle;Signal;HPM_P1;HPM_P2
2020/12/21 00:01:40;;;;;;;9.60;4.10;;;7.50;99.90;;;;;;5071203;28;20910;-74
2020/12/21 00:04:07;;;;;;;7.63;3.40;;;7.50;99.90;;;;;;5069864;28;20183;-74
2020/12/21 00:06:32;;;;;;;8.63;3.47;;;7.40;99.90;;;;;;5071753;28;20449;-74
2020/12/21 00:08:58;;;;;;;10.50;3.97;;;7.40;99.90;;;;;;5070561;28;20437;-74
2020/12/21 00:11:40;;;;;;;12.83;4.00;;;7.40;99.90;;;;;;5071129;28;20180;-74
2020/12/21 00:14:07;;;;;;;10.40;4.37;;;7.40;99.90;;;;;;5070679;28;20192;-74
2020/12/21 00:16:47;;;;;;;11.20;4.27;;;7.40;99.90;;;;;;5072197;28;20445;-74
2020/12/21 00:19:18;;;;;;;7.17;3.53;;;7.30;99.90;;;;;;5073936;28;20480;-74
2020/12/21 00:21:45;;;;;;;12.20;4.67;;;7.30;99.90;;;;;;5070695;28;20439;-74
2020/12/21 00:24:10;;;;;;;12.00;3.33;;;7.30;99.90;;;;;;5059211;28;20893;-74
2020/12/21 00:26:36;;;;;;;10.40;3.20;;;7.30;99.90;;;;;;5068787;28;20553;-74
2020/12/21 00:29:03;;;;;;;9.17;4.13;;;7.30;99.90;;;;;;5070607;28;20237;-74
2020/12/21 00:31:31;;;;;;;9.13;3.47;;;7.30;99.90;;;;;;5052135;28;20203;-74
2020/12/21 00:33:57;;;;;;;9.00;3.17;;;7.30;99.90;;;;;;5072559;28;20520;-74
2020/12/21 00:36:24;;;;;;;13.87;4.10;;;7.30;99.90;;;;;;5052719;28;20458;-74
2020/12/21 00:38:50;;;;;;;11.30;3.70;;;7.20;99.90;;;;;;5055509;28;20441;-74
2020/12/21 00:41:18;;;;;;;8.23;3.33;;;7.20;99.90;;;;;;5070181;28;20429;-74
2020/12/21 00:43:47;;;;;;;5.73;3.10;;;7.20;99.90;;;;;;5072400;28;20946;-74
2020/12/21 00:46:21;;;;;;;6.93;3.10;;;7.20;99.90;;;;;;5052836;28;21017;-74
2020/12/21 00:48:47;;;;;;;10.47;3.73;;;7.20;99.90;;;;;;5072269;28;20533;-74
2020/12/21 00:51:14;;;;;;;8.63;3.90;;;7.20;99.90;;;;;;5057698;28;20519;-74
2020/12/21 00:53:41;;;;;;;6.93;3.97;;;7.20;99.90;;;;;;5074592;28;20430;-74
2020/12/21 00:56:07;;;;;;;8.63;3.47;;;7.20;99.90;;;;;;5078018;28;20472;-74
2020/12/21 00:58:35;;;;;;;11.30;3.33;;;7.20;99.90;;;;;;5074465;28;20432;-74
2020/12/21 01:01:09;;;;;;;6.20;2.83;;;7.20;99.90;;;;;;5075800;28;20525;-74
2020/12/21 01:03:35;;;;;;;5.87;3.40;;;7.20;99.90;;;;;;5056001;28;20458;-74
2020/12/21 01:06:00;;;;;;;10.37;3.70;;;7.20;99.90;;;;;;5075222;28;21018;-74
2020/12/21 01:08:26;;;;;;;8.97;3.90;;;7.20;99.90;;;;;;5074447;28;20505;-74
2020/12/21 01:10:52;;;;;;;8.57;3.30;;;7.20;99.90;;;;;;5076992;28;20187;-74
2020/12/21 01:13:17;;;;;;;9.13;3.20;;;7.20;99.90;;;;;;5075352;28;20624;-74
2020/12/21 01:15:43;;;;;;;6.40;3.77;;;7.20;99.90;;;;;;5072801;28;20666;-74
2020/12/21 01:18:09;;;;;;;12.53;2.90;;;7.20;99.90;;;;;;5076462;28;20198;-74
2020/12/21 01:20:35;;;;;;;8.67;3.77;;;7.20;99.90;;;;;;5055988;28;20493;-74
2020/12/21 01:23:01;;;;;;;7.50;3.37;;;7.20;99.90;;;;;;5060071;28;20980;-74
2020/12/21 01:25:26;;;;;;;10.60;4.03;;;7.20;99.90;;;;;;5073954;28;20181;-74
2020/12/21 01:27:52;;;;;;;6.17;3.63;;;7.10;99.90;;;;;;5080468;28;20204;-74
2020/12/21 01:30:17;;;;;;;12.03;3.63;;;7.20;99.90;;;;;;5076399;28;20210;-74
2020/12/21 01:32:43;;;;;;;5.80;3.50;;;7.20;99.90;;;;;;5072917;28;20214;-74
2020/12/21 01:35:08;;;;;;;9.33;3.63;;;7.10;99.90;;;;;;5076952;28;20215;-74
2020/12/21 01:37:34;;;;;;;8.57;2.83;;;7.20;99.90;;;;;;5078552;28;20187;-74
2020/12/21 01:40:02;;;;;;;9.00;3.00;;;7.10;99.90;;;;;;5074923;28;20225;-74
2020/12/21 01:42:27;;;;;;;10.47;3.47;;;7.10;99.90;;;;;;5076973;28;20854;-74
2020/12/21 01:44:53;;;;;;;12.53;3.63;;;7.10;99.90;;;;;;5075582;28;20437;-74
2020/12/21 01:47:21;;;;;;;5.93;3.40;;;7.10;99.90;;;;;;5074336;28;20222;-74
2020/12/21 01:49:47;;;;;;;7.93;3.20;;;7.10;99.90;;;;;;5072911;28;20696;-74
2020/12/21 01:52:16;;;;;;;9.93;3.40;;;7.10;99.90;;;;;;5073148;28;20441;-74
2020/12/21 01:54:43;;;;;;;6.50;3.30;;;7.10;99.90;;;;;;5080624;28;20473;-74
2020/12/21 01:57:09;;;;;;;9.60;3.13;;;7.10;99.90;;;;;;5067258;28;20429;-74
2020/12/21 01:59:34;;;;;;;10.07;3.57;;;7.20;99.90;;;;;;5072118;28;20516;-74
2020/12/21 02:02:00;;;;;;;6.73;4.13;;;7.10;99.90;;;;;;5074310;28;20195;-74
2020/12/21 02:04:26;;;;;;;9.13;3.30;;;7.10;99.90;;;;;;5059258;28;20298;-74
2020/12/21 02:06:51;;;;;;;5.23;3.57;;;7.10;99.90;;;;;;5055509;28;20191;-74
2020/12/21 02:09:17;;;;;;;7.27;3.47;;;7.10;99.90;;;;;;5081045;28;20663;-74
2020/12/21 02:11:43;;;;;;;10.87;3.73;;;7.10;99.90;;;;;;5074185;28;20285;-74
2020/12/21 02:14:10;;;;;;;7.33;2.93;;;7.00;99.90;;;;;;5077138;28;20194;-74
2020/12/21 02:16:36;;;;;;;9.80;3.90;;;7.00;99.90;;;;;;5055681;28;20464;-74
2020/12/21 02:19:03;;;;;;;9.53;4.40;;;7.00;99.90;;;;;;5070562;28;20433;-74
2020/12/21 02:21:28;;;;;;;7.93;3.43;;;7.00;99.90;;;;;;5072035;28;21190;-74
2020/12/21 02:23:54;;;;;;;12.00;3.50;;;7.00;99.90;;;;;;5078689;28;20441;-74
2020/12/21 02:26:20;;;;;;;7.87;3.50;;;7.00;99.90;;;;;;5075355;28;20290;-74
2020/12/21 02:28:52;;;;;;;9.43;3.20;;;6.90;99.90;;;;;;5060651;28;20180;-74
2020/12/21 02:31:18;;;;;;;7.40;4.10;;;6.90;99.90;;;;;;5075882;28;20187;-74
2020/12/21 02:33:45;;;;;;;16.10;3.03;;;6.90;99.90;;;;;;5072933;28;20976;-74
2020/12/21 02:36:10;;;;;;;10.80;4.30;;;6.90;99.90;;;;;;5070356;28;20225;-74
2020/12/21 02:38:36;;;;;;;10.47;4.10;;;6.90;99.90;;;;;;5053948;28;20437;-74
2020/12/21 02:41:01;;;;;;;6.80;3.30;;;6.90;99.90;;;;;;5073989;28;20854;-74
2020/12/21 02:43:27;;;;;;;8.93;2.93;;;6.90;99.90;;;;;;5071920;28;20671;-74
2020/12/21 02:45:52;;;;;;;9.73;3.00;;;6.80;99.90;;;;;;5074246;28;20541;-74
2020/12/21 02:48:18;;;;;;;16.37;3.50;;;6.80;99.90;;;;;;5073892;28;20241;-74
2020/12/21 02:50:44;;;;;;;6.53;3.00;;;6.80;99.90;;;;;;5071716;28;20228;-74
2020/12/21 02:53:14;;;;;;;11.60;4.07;;;6.80;99.90;;;;;;5079048;28;20190;-74
2020/12/21 02:55:39;;;;;;;8.03;3.40;;;6.80;99.90;;;;;;5059950;28;20238;-74
2020/12/21 02:58:05;;;;;;;10.20;3.53;;;6.80;99.90;;;;;;5072703;28;20473;-74
2020/12/21 03:00:33;;;;;;;13.47;3.13;;;6.80;99.90;;;;;;5071127;28;20191;-74
2020/12/21 03:03:00;;;;;;;4.80;2.43;;;6.90;99.90;;;;;;5060627;28;20469;-74
2020/12/21 03:05:25;;;;;;;5.80;2.60;;;6.90;99.90;;;;;;5071203;28;20459;-74
2020/12/21 03:07:51;;;;;;;7.50;2.73;;;6.90;99.90;;;;;;5053429;28;20440;-74
2020/12/21 03:10:16;;;;;;;7.57;3.10;;;6.90;99.90;;;;;;5054551;28;20279;-74
2020/12/21 03:12:42;;;;;;;8.50;2.70;;;7.00;99.90;;;;;;5071061;28;20790;-74
2020/12/21 03:15:07;;;;;;;4.33;2.37;;;7.00;99.90;;;;;;5053984;28;20209;-74
2020/12/21 03:17:33;;;;;;;8.07;2.80;;;7.00;99.90;;;;;;5071079;28;20197;-74
2020/12/21 03:19:58;;;;;;;15.93;3.43;;;7.00;99.90;;;;;;5054872;28;20291;-74
2020/12/21 03:22:24;;;;;;;3.70;1.90;;;7.00;99.90;;;;;;5072401;28;20548;-74
2020/12/21 03:24:50;;;;;;;7.17;2.80;;;7.00;99.90;;;;;;5077829;28;20184;-74
2020/12/21 03:27:15;;;;;;;6.90;2.93;;;7.00;99.90;;;;;;5056867;28;20193;-74
2020/12/21 03:29:41;;;;;;;7.27;3.17;;;7.00;99.90;;;;;;5071951;28;20663;-74
2020/12/21 03:32:07;;;;;;;7.23;3.33;;;7.00;99.90;;;;;;5070930;28;20185;-74
2020/12/21 03:34:33;;;;;;;12.77;3.60;;;7.00;99.90;;;;;;5070206;28;20465;-74
2020/12/21 03:36:58;;;;;;;6.90;2.70;;;7.00;99.90;;;;;;5072949;28;20198;-73
2020/12/21 03:39:24;;;;;;;8.67;2.57;;;7.00;99.90;;;;;;5053187;28;20179;-74
2020/12/21 03:41:49;;;;;;;8.17;2.60;;;7.00;99.90;;;;;;5052788;28;20533;-74
2020/12/21 03:44:14;;;;;;;6.97;2.90;;;7.00;99.90;;;;;;5055406;28;20182;-74
2020/12/21 03:46:40;;;;;;;5.23;2.43;;;7.00;99.90;;;;;;5072593;28;20195;-74
2020/12/21 03:49:05;;;;;;;4.67;2.43;;;7.00;99.90;;;;;;5071527;28;20191;-74
2020/12/21 03:51:31;;;;;;;10.53;2.80;;;6.90;99.90;;;;;;5074142;28;20648;-74
2020/12/21 03:53:56;;;;;;;4.97;2.40;;;6.90;99.90;;;;;;5073499;28;20191;-73
2020/12/21 03:56:22;;;;;;;7.10;2.77;;;6.90;99.90;;;;;;5072881;28;20226;-73
2020/12/21 03:58:47;;;;;;;7.70;2.30;;;6.80;99.90;;;;;;5070939;28;20637;-73
2020/12/21 04:01:13;;;;;;;8.10;2.93;;;6.80;99.90;;;;;;5056678;28;20301;-73
2020/12/21 04:03:39;;;;;;;8.10;2.70;;;6.80;99.90;;;;;;5070833;28;20247;-73
2020/12/21 04:06:04;;;;;;;3.83;2.80;;;6.80;99.90;;;;;;5052230;28;20453;-73
2020/12/21 04:08:30;;;;;;;8.47;2.90;;;6.80;99.90;;;;;;5072818;28;20187;-73
2020/12/21 04:10:58;;;;;;;4.57;2.93;;;6.80;99.90;;;;;;5071187;28;20237;-73
2020/12/21 04:13:24;;;;;;;7.47;3.17;;;6.70;99.90;;;;;;5075225;28;20190;-73
2020/12/21 04:15:51;;;;;;;8.30;3.17;;;6.70;99.90;;;;;;5073174;28;20978;-73
2020/12/21 04:18:17;;;;;;;3.57;2.67;;;6.70;99.90;;;;;;5073719;28;20297;-73
2020/12/21 04:20:42;;;;;;;5.70;3.33;;;6.70;99.90;;;;;;5069735;28;20552;-73
2020/12/21 04:23:08;;;;;;;7.60;3.30;;;6.70;99.90;;;;;;5075575;28;20569;-73
2020/12/21 04:25:33;;;;;;;8.10;2.47;;;6.70;99.90;;;;;;5059874;28;20191;-73
2020/12/21 04:27:59;;;;;;;7.10;2.70;;;6.70;99.90;;;;;;5076666;28;20199;-73
2020/12/21 04:30:24;;;;;;;9.50;2.83;;;6.70;99.90;;;;;;5073848;28;20293;-73
2020/12/21 04:32:50;;;;;;;4.10;2.73;;;6.70;99.90;;;;;;5056153;28;20552;-73
2020/12/21 04:35:15;;;;;;;5.67;2.63;;;6.70;99.90;;;;;;5075206;28;20284;-73
2020/12/21 04:37:43;;;;;;;5.60;2.17;;;6.70;99.90;;;;;;5083684;28;20675;-73
2020/12/21 04:40:09;;;;;;;8.93;3.20;;;6.70;99.90;;;;;;5073915;28;20214;-73
2020/12/21 04:42:48;;;;;;;6.10;2.40;;;6.60;99.90;;;;;;5076904;28;20437;-73
2020/12/21 04:45:15;;;;;;;7.80;3.63;;;6.60;99.90;;;;;;5058267;28;20190;-73
2020/12/21 04:47:43;;;;;;;8.17;2.70;;;6.60;99.90;;;;;;5075067;28;20445;-73
2020/12/21 04:50:15;;;;;;;8.30;2.60;;;6.60;99.90;;;;;;5073234;28;20639;-73
2020/12/21 04:52:47;;;;;;;8.43;2.80;;;6.60;99.90;;;;;;5060807;28;20440;-73
2020/12/21 04:55:16;;;;;;;8.23;2.77;;;6.60;99.90;;;;;;5079295;28;20504;-73
2020/12/21 04:57:52;;;;;;;10.17;2.63;;;6.60;99.90;;;;;;5056473;28;20446;-73
2020/12/21 05:00:17;;;;;;;4.40;2.60;;;6.60;99.90;;;;;;5074271;28;20449;-73
2020/12/21 05:02:43;;;;;;;5.80;2.63;;;6.60;99.90;;;;;;5074275;28;20562;-73
2020/12/21 05:05:08;;;;;;;8.23;2.77;;;6.60;99.90;;;;;;5076886;28;20195;-73
2020/12/21 05:07:34;;;;;;;6.93;3.80;;;6.60;99.90;;;;;;5061561;28;20183;-73
2020/12/21 05:10:09;;;;;;;10.00;2.63;;;6.60;99.90;;;;;;5059842;28;20717;-73
2020/12/21 05:12:37;;;;;;;8.23;2.80;;;6.50;99.90;;;;;;5077583;28;20266;-73
2020/12/21 05:15:13;;;;;;;6.03;2.37;;;6.50;99.90;;;;;;5056661;28;20527;-73
2020/12/21 05:17:39;;;;;;;8.80;2.57;;;6.50;99.90;;;;;;5077786;28;21333;-73
2020/12/21 05:20:05;;;;;;;4.73;2.87;;;6.50;99.90;;;;;;5076282;28;20476;-73
2020/12/21 05:22:31;;;;;;;8.97;3.03;;;6.50;99.90;;;;;;5075892;28;20714;-73
2020/12/21 05:25:06;;;;;;;8.20;3.30;;;6.50;99.90;;;;;;5072063;28;20746;-73
2020/12/21 05:27:32;;;;;;;4.53;2.10;;;6.50;99.90;;;;;;5061693;28;20201;-73
2020/12/21 05:29:57;;;;;;;5.10;2.53;;;6.50;99.90;;;;;;5061574;28;20432;-73
2020/12/21 05:32:23;;;;;;;12.27;3.43;;;6.60;99.90;;;;;;5074844;28;20294;-73
2020/12/21 05:34:49;;;;;;;13.00;3.17;;;6.60;99.90;;;;;;5056260;28;20205;-73
2020/12/21 05:37:19;;;;;;;5.87;2.63;;;6.60;99.90;;;;;;5056869;28;20532;-73
2020/12/21 05:39:56;;;;;;;5.43;2.30;;;6.70;99.90;;;;;;5072927;28;20438;-73
2020/12/21 05:42:23;;;;;;;5.13;2.50;;;6.70;99.90;;;;;;5075260;28;20842;-73
2020/12/21 05:44:57;;;;;;;7.03;2.50;;;6.70;99.90;;;;;;5075592;28;20437;-73
2020/12/21 05:47:24;;;;;;;6.87;2.60;;;6.80;99.90;;;;;;5073178;28;20957;-73
2020/12/21 05:49:59;;;;;;;6.27;2.47;;;6.80;99.90;;;;;;5058920;28;20430;-73
2020/12/21 05:52:34;;;;;;;6.10;2.53;;;6.80;99.90;;;;;;5072590;28;20433;-73
2020/12/21 05:55:11;;;;;;;7.87;2.20;;;6.80;99.90;;;;;;5055555;28;21039;-73
2020/12/21 05:57:38;;;;;;;4.33;2.80;;;6.80;99.90;;;;;;5075846;28;20445;-73
2020/12/21 06:00:10;;;;;;;7.60;2.20;;;6.90;99.90;;;;;;5073510;28;20437;-73
2020/12/21 06:02:37;;;;;;;10.37;2.97;;;6.90;99.90;;;;;;5072980;28;20886;-73
2020/12/21 06:05:08;;;;;;;9.80;3.10;;;6.90;99.90;;;;;;5068676;28;20780;-73
2020/12/21 06:07:35;;;;;;;3.17;1.57;;;6.90;99.90;;;;;;5081670;28;20778;-73
2020/12/21 06:10:04;;;;;;;10.73;2.70;;;7.00;99.90;;;;;;5072340;28;20433;-73
2020/12/21 06:12:42;;;;;;;5.60;2.43;;;6.90;99.90;;;;;;5058845;28;20556;-73
2020/12/21 06:15:11;;;;;;;7.63;2.37;;;6.90;99.90;;;;;;5062125;28;20927;-73
2020/12/21 06:17:37;;;;;;;4.90;2.07;;;6.90;99.90;;;;;;5057966;28;20811;-73
2020/12/21 06:20:07;;;;;;;6.20;3.23;;;6.90;99.90;;;;;;5077962;28;20463;-73
2020/12/21 06:22:34;;;;;;;11.20;2.73;;;6.90;99.90;;;;;;5074843;28;20553;-73
2020/12/21 06:24:59;;;;;;;10.53;3.50;;;6.90;99.90;;;;;;5061462;28;20457;-73
2020/12/21 06:27:40;;;;;;;11.70;2.90;;;6.90;99.90;;;;;;5076071;28;20441;-73
2020/12/21 06:30:07;;;;;;;7.70;2.77;;;6.90;99.90;;;;;;5080510;28;20179;-73
2020/12/21 06:32:34;;;;;;;5.33;2.37;;;6.90;99.90;;;;;;5074691;28;20448;-73
2020/12/21 06:35:01;;;;;;;11.00;3.90;;;6.90;99.90;;;;;;5076757;28;21114;-73
2020/12/21 06:37:27;;;;;;;9.93;2.90;;;6.90;99.90;;;;;;5055068;28;20446;-73
2020/12/21 06:40:01;;;;;;;11.40;3.30;;;6.90;99.90;;;;;;5057320;28;20815;-73
2020/12/21 06:42:27;;;;;;;6.10;2.70;;;6.80;99.90;;;;;;5073016;28;20187;-73
2020/12/21 06:44:54;;;;;;;7.23;2.70;;;6.80;99.90;;;;;;5073711;28;20438;-73
2020/12/21 06:47:21;;;;;;;6.13;3.00;;;6.80;99.90;;;;;;5077397;28;20457;-73
2020/12/21 06:49:47;;;;;;;8.77;2.70;;;6.80;99.90;;;;;;5063047;28;21018;-73
2020/12/21 06:52:13;;;;;;;5.30;2.50;;;6.80;99.90;;;;;;5054099;28;20527;-73
2020/12/21 06:54:38;;;;;;;5.90;2.90;;;6.80;99.90;;;;;;5078263;28;20207;-73
2020/12/21 06:57:04;;;;;;;7.50;2.90;;;6.80;99.90;;;;;;5061593;28;20202;-73
2020/12/21 06:59:29;;;;;;;7.97;2.50;;;6.80;99.90;;;;;;5054051;28;20213;-73
2020/12/21 07:01:56;;;;;;;10.67;3.47;;;6.80;99.90;;;;;;5057918;28;20528;-73
2020/12/21 07:04:24;;;;;;;8.50;2.80;;;6.90;99.90;;;;;;5054029;28;20182;-73
2020/12/21 07:06:51;;;;;;;7.03;3.77;;;6.90;99.90;;;;;;5080379;28;20439;-73
2020/12/21 07:09:25;;;;;;;5.97;2.90;;;6.90;99.90;;;;;;5054183;28;20854;-73
2020/12/21 07:12:02;;;;;;;6.63;2.70;;;6.90;99.90;;;;;;5056402;28;20475;-73
2020/12/21 07:14:29;;;;;;;8.30;3.13;;;6.90;99.90;;;;;;5070878;28;20522;-73
2020/12/21 07:17:11;;;;;;;11.67;3.30;;;6.90;99.90;;;;;;5059150;28;21071;-73
2020/12/21 07:19:40;;;;;;;13.67;4.70;;;6.90;99.90;;;;;;5054754;28;20559;-73
2020/12/21 07:22:06;;;;;;;6.60;3.40;;;6.90;99.90;;;;;;5053723;28;20430;-73
2020/12/21 07:24:32;;;;;;;9.60;2.90;;;6.90;99.90;;;;;;5075102;28;21013;-73
2020/12/21 07:26:58;;;;;;;6.40;3.67;;;6.90;99.90;;;;;;5075926;28;20441;-73
2020/12/21 07:29:30;;;;;;;8.00;3.17;;;6.90;99.90;;;;;;5060066;28;20433;-73
2020/12/21 07:31:56;;;;;;;9.17;3.70;;;6.90;99.90;;;;;;5064665;28;20234;-73
2020/12/21 07:34:21;;;;;;;6.93;3.27;;;6.90;99.90;;;;;;5071149;28;20445;-73
2020/12/21 07:36:47;;;;;;;10.23;3.40;;;6.80;99.90;;;;;;5072986;28;20218;-73
2020/12/21 07:39:17;;;;;;;8.17;3.23;;;6.80;99.90;;;;;;5052068;28;20521;-73
2020/12/21 07:41:46;;;;;;;8.00;4.10;;;6.80;99.90;;;;;;5080449;28;20652;-73
2020/12/21 07:44:21;;;;;;;7.63;4.47;;;6.80;99.90;;;;;;5071187;28;20437;-73
2020/12/21 07:46:58;;;;;;;6.80;2.93;;;6.90;99.90;;;;;;5072901;28;20433;-73
2020/12/21 07:49:24;;;;;;;10.33;4.13;;;6.90;99.90;;;;;;5079236;28;20570;-73
2020/12/21 07:51:49;;;;;;;4.40;3.03;;;6.90;99.90;;;;;;5055821;28;20441;-73
2020/12/21 07:54:15;;;;;;;9.63;3.40;;;6.90;99.90;;;;;;5073483;28;20433;-73
2020/12/21 07:56:41;;;;;;;10.97;3.07;;;6.90;99.90;;;;;;5069659;28;20216;-73
2020/12/21 07:59:15;;;;;;;8.57;3.27;;;6.90;99.90;;;;;;5075634;28;20183;-73
2020/12/21 08:01:41;;;;;;;4.50;3.20;;;7.00;99.90;;;;;;5080094;28;20597;-73
2020/12/21 08:04:14;;;;;;;11.77;3.60;;;7.00;99.90;;;;;;5072534;28;20438;-73
2020/12/21 08:06:40;;;;;;;11.63;3.40;;;7.10;99.90;;;;;;5071574;28;20433;-73
2020/12/21 08:09:09;;;;;;;8.57;3.33;;;7.10;99.90;;;;;;5074759;28;20428;-73
2020/12/21 08:11:39;;;;;;;8.40;3.70;;;7.10;99.90;;;;;;5072701;28;20238;-73
2020/12/21 08:14:07;;;;;;;6.70;2.60;;;7.20;99.90;;;;;;5072277;28;20437;-73
2020/12/21 08:16:32;;;;;;;9.03;3.30;;;7.20;99.90;;;;;;5073648;28;20938;-73
2020/12/21 08:18:59;;;;;;;6.60;3.10;;;7.20;99.90;;;;;;5079909;28;20472;-73
2020/12/21 08:21:25;;;;;;;6.90;2.90;;;7.20;99.90;;;;;;5073248;28;20214;-73
2020/12/21 08:23:57;;;;;;;5.20;2.83;;;7.30;99.90;;;;;;5073079;28;20483;-73
2020/12/21 08:26:24;;;;;;;7.03;2.90;;;7.30;99.90;;;;;;5069518;28;20429;-73
2020/12/21 08:28:50;;;;;;;5.00;2.87;;;7.40;99.90;;;;;;5074360;28;21338;-73
2020/12/21 08:31:18;;;;;;;6.30;4.33;;;7.40;99.90;;;;;;5069724;28;20441;-73
2020/12/21 08:34:05;;;;;;;7.27;3.57;;;7.40;99.90;;;;;;5051060;28;20960;-73
2020/12/21 08:36:33;;;;;;;6.07;3.10;;;7.40;99.90;;;;;;5067802;28;20956;-73
2020/12/21 08:39:19;;;;;;;7.50;3.70;;;7.40;99.90;;;;;;5061399;28;20442;-73
2020/12/21 08:41:46;;;;;;;8.03;3.47;;;7.50;99.90;;;;;;5052883;28;20429;-73
2020/12/21 08:44:23;;;;;;;8.67;3.30;;;7.50;99.90;;;;;;5076190;28;20479;-73
2020/12/21 08:46:57;;;;;;;10.30;4.30;;;7.50;99.90;;;;;;5067317;28;20433;-73
2020/12/21 08:49:25;;;;;;;14.73;4.70;;;7.60;99.90;;;;;;5077145;28;20437;-73
2020/12/21 08:51:51;;;;;;;7.93;3.70;;;7.60;99.90;;;;;;5070011;28;20448;-73
2020/12/21 08:54:17;;;;;;;7.77;2.70;;;7.70;99.90;;;;;;5073683;28;20551;-73
2020/12/21 08:56:51;;;;;;;14.20;3.73;;;7.70;99.90;;;;;;5070809;28;21002;-73
2020/12/21 08:59:18;;;;;;;5.67;2.53;;;7.70;99.90;;;;;;5055068;28;20446;-73
2020/12/21 09:01:44;;;;;;;8.47;3.10;;;7.70;99.90;;;;;;5052305;28;20529;-73
2020/12/21 09:04:11;;;;;;;11.53;3.40;;;7.70;99.90;;;;;;5071724;28;20462;-73
2020/12/21 09:06:36;;;;;;;8.10;2.80;;;7.80;99.90;;;;;;5051265;28;20434;-73
2020/12/21 09:09:03;;;;;;;7.13;2.90;;;7.80;99.90;;;;;;5069742;28;20444;-73
2020/12/21 09:11:29;;;;;;;12.90;3.40;;;7.80;99.90;;;;;;5072154;28;20176;-73
2020/12/21 09:13:55;;;;;;;8.33;3.80;;;7.80;99.90;;;;;;5073333;28;20802;-73
2020/12/21 09:16:23;;;;;;;7.57;2.97;;;7.90;99.90;;;;;;5070937;28;20726;-73
2020/12/21 09:18:49;;;;;;;10.93;3.00;;;8.00;99.90;;;;;;5076480;28;20220;-73
2020/12/21 09:21:22;;;;;;;10.67;3.37;;;8.00;99.90;;;;;;5074058;28;20436;-72
2020/12/21 09:23:48;;;;;;;9.97;3.00;;;8.00;99.90;;;;;;5076240;28;20442;-72
2020/12/21 09:26:14;;;;;;;8.63;3.27;;;8.00;99.90;;;;;;5060243;28;20531;-73
2020/12/21 09:28:40;;;;;;;3.67;2.60;;;8.00;99.90;;;;;;5059426;28;20596;-73
2020/12/21 09:31:07;;;;;;;11.23;3.50;;;8.10;99.90;;;;;;5075450;28;20195;-73
2020/12/21 09:33:33;;;;;;;6.60;2.97;;;8.10;99.90;;;;;;5073087;28;20527;-73
2020/12/21 09:35:58;;;;;;;8.83;3.20;;;8.10;99.90;;;;;;5074052;28;20960;-73
2020/12/21 09:38:24;;;;;;;6.60;2.87;;;8.10;99.90;;;;;;5057478;28;20305;-73
2020/12/21 09:40:49;;;;;;;4.30;2.80;;;8.20;99.90;;;;;;5087663;28;20267;-72
2020/12/21 09:43:15;;;;;;;4.00;2.80;;;8.20;99.90;;;;;;5078709;28;20183;-72
2020/12/21 09:45:40;;;;;;;8.17;3.40;;;8.20;99.90;;;;;;5064795;28;20195;-72
2020/12/21 09:48:06;;;;;;;13.60;3.40;;;8.30;99.90;;;;;;5079003;28;20199;-73
2020/12/21 09:50:31;;;;;;;5.60;3.00;;;8.30;99.90;;;;;;5057855;28;20681;-73
2020/12/21 09:52:57;;;;;;;8.63;3.90;;;8.40;99.90;;;;;;5078607;28;20195;-72
2020/12/21 09:55:22;;;;;;;11.63;3.70;;;8.40;99.90;;;;;;5080147;28;20322;-72
2020/12/21 09:57:48;;;;;;;4.80;2.40;;;8.40;99.90;;;;;;5077343;28;20555;-73
2020/12/21 10:00:13;;;;;;;7.63;3.70;;;8.40;99.90;;;;;;5055067;28;20320;-73
2020/12/21 10:02:39;;;;;;;6.13;3.40;;;8.40;99.90;;;;;;5053477;28;20809;-73
2020/12/21 10:05:04;;;;;;;8.87;3.00;;;8.50;99.90;;;;;;5071029;28;20179;-73
2020/12/21 10:07:30;;;;;;;7.40;2.97;;;8.50;99.90;;;;;;5072279;28;20729;-73
2020/12/21 10:09:56;;;;;;;4.90;3.13;;;8.60;99.90;;;;;;5079594;28;20213;-73
2020/12/21 10:12:21;;;;;;;4.13;2.40;;;8.60;99.90;;;;;;5078382;28;20194;-73
2020/12/21 10:14:47;;;;;;;3.90;2.73;;;8.50;99.90;;;;;;5054174;28;20273;-72
2020/12/21 10:17:12;;;;;;;7.33;4.23;;;8.50;99.90;;;;;;5072643;28;20190;-72
2020/12/21 10:19:38;;;;;;;6.13;3.40;;;8.50;99.90;;;;;;5074425;28;20202;-73
2020/12/21 10:22:03;;;;;;;4.60;2.70;;;8.50;99.90;;;;;;5072169;28;20187;-73
2020/12/21 10:24:29;;;;;;;9.70;6.50;;;8.50;99.90;;;;;;5079750;28;20260;-73
2020/12/21 10:26:54;;;;;;;5.40;3.20;;;8.50;99.90;;;;;;5083099;28;20183;-73
2020/12/21 10:29:20;;;;;;;6.60;3.00;;;8.60;99.90;;;;;;5073746;28;20183;-73
2020/12/21 10:31:46;;;;;;;7.30;3.60;;;8.60;99.90;;;;;;5079235;28;20193;-73
2020/12/21 10:34:14;;;;;;;10.63;7.37;;;8.60;99.90;;;;;;5053158;28;20533;-73
2020/12/21 10:36:40;;;;;;;7.33;4.30;;;8.70;99.90;;;;;;5054890;28;20236;-73
2020/12/21 10:39:06;;;;;;;5.30;3.40;;;8.70;99.90;;;;;;5082481;28;20523;-73
2020/12/21 10:41:34;;;;;;;17.23;7.80;;;8.70;99.90;;;;;;5081670;28;20175;-73
2020/12/21 10:44:03;;;;;;;12.80;4.47;;;8.80;99.90;;;;;;5070599;28;20667;-73
2020/12/21 10:46:28;;;;;;;4.67;3.40;;;8.90;99.90;;;;;;5056231;28;20954;-73
2020/12/21 10:48:54;;;;;;;6.10;3.20;;;8.90;99.90;;;;;;5075031;28;20530;-73
2020/12/21 10:51:26;;;;;;;8.67;3.63;;;9.00;99.90;;;;;;5075328;28;20217;-73
2020/12/21 10:53:52;;;;;;;4.43;2.93;;;9.10;99.90;;;;;;5078984;28;20636;-73
2020/12/21 10:56:17;;;;;;;10.60;6.10;;;9.20;99.90;;;;;;5071087;28;20472;-73
2020/12/21 10:58:43;;;;;;;7.03;4.30;;;9.20;99.90;;;;;;5070396;28;20955;-73
2020/12/21 11:01:09;;;;;;;9.83;3.90;;;9.20;99.90;;;;;;5052695;28;20211;-73
2020/12/21 11:03:35;;;;;;;7.27;3.23;;;9.30;99.90;;;;;;5067901;28;20191;-73
2020/12/21 11:06:01;;;;;;;5.50;3.20;;;9.30;99.90;;;;;;5073779;28;20199;-75
2020/12/21 11:08:26;;;;;;;5.20;2.73;;;9.30;99.90;;;;;;5072369;28;20484;-74
2020/12/21 11:10:52;;;;;;;4.93;3.60;;;9.30;99.90;;;;;;5071244;28;20184;-74
2020/12/21 11:13:17;;;;;;;7.40;4.10;;;9.40;99.90;;;;;;5053751;28;20187;-74
2020/12/21 11:15:43;;;;;;;4.47;2.50;;;9.40;99.90;;;;;;5052801;28;20219;-74
2020/12/21 11:18:08;;;;;;;5.30;2.70;;;9.40;99.90;;;;;;5057562;28;20237;-74
2020/12/21 11:20:34;;;;;;;6.60;3.50;;;9.40;99.90;;;;;;5080581;28;20217;-74
2020/12/21 11:23:00;;;;;;;7.10;3.40;;;9.40;99.90;;;;;;5074180;28;20187;-74
2020/12/21 11:25:25;;;;;;;7.00;4.00;;;9.40;99.90;;;;;;5069029;28;20180;-74
2020/12/21 11:27:51;;;;;;;11.33;3.97;;;9.50;99.90;;;;;;5073743;28;20199;-74
2020/12/21 11:30:16;;;;;;;7.77;2.60;;;9.50;99.90;;;;;;5070491;28;20184;-74
2020/12/21 11:32:43;;;;;;;4.70;2.83;;;9.50;99.90;;;;;;5058431;28;20192;-74
2020/12/21 11:35:08;;;;;;;6.93;3.20;;;9.50;99.90;;;;;;5059126;28;20707;-74
2020/12/21 11:37:35;;;;;;;7.50;3.40;;;9.50;99.90;;;;;;5065987;28;20877;-74
2020/12/21 11:40:02;;;;;;;5.37;2.97;;;9.50;99.90;;;;;;5071011;28;20191;-74
2020/12/21 11:42:27;;;;;;;6.17;3.47;;;9.50;99.90;;;;;;5072864;28;20456;-74
2020/12/21 11:44:53;;;;;;;7.70;3.53;;;9.50;99.90;;;;;;5069697;28;20902;-74
2020/12/21 11:47:18;;;;;;;6.70;4.93;;;9.50;99.90;;;;;;5071579;28;20188;-74
2020/12/21 11:49:44;;;;;;;6.13;3.90;;;9.50;99.90;;;;;;5082268;28;20228;-74
2020/12/21 11:52:10;;;;;;;8.50;3.70;;;9.50;99.90;;;;;;5055400;28;20619;-74
2020/12/21 11:54:35;;;;;;;6.70;3.73;;;9.50;99.90;;;;;;5071871;28;20217;-74
2020/12/21 11:57:02;;;;;;;6.10;3.60;;;9.50;99.90;;;;;;5070218;28;20202;-73
2020/12/21 11:59:27;;;;;;;6.80;3.97;;;9.50;99.90;;;;;;5073500;28;20180;-73
2020/12/21 12:02:02;;;;;;;5.83;3.87;;;9.40;99.90;;;;;;5071304;28;20436;-74
2020/12/21 12:04:28;;;;;;;5.23;3.67;;;9.40;99.90;;;;;;5073636;28;20381;-73
2020/12/21 12:06:55;;;;;;;7.07;4.30;;;9.40;99.90;;;;;;5055750;28;20437;-73
2020/12/21 12:09:21;;;;;;;11.53;5.40;;;9.40;99.90;;;;;;5069421;28;20787;-73
2020/12/21 12:11:48;;;;;;;7.20;5.40;;;9.30;99.90;;;;;;5055612;28;20502;-73
2020/12/21 12:14:13;;;;;;;8.00;4.03;;;9.40;99.90;;;;;;5054977;28;20448;-73
2020/12/21 12:16:39;;;;;;;8.27;4.80;;;9.40;99.90;;;;;;5070527;28;20481;-73
2020/12/21 12:19:04;;;;;;;7.07;4.17;;;9.40;99.90;;;;;;5082245;28;20246;-74
2020/12/21 12:21:30;;;;;;;6.33;3.70;;;9.40;99.90;;;;;;5068218;28;20184;-73
2020/12/21 12:23:55;;;;;;;7.77;4.50;;;9.40;99.90;;;;;;5055364;28;20188;-73
2020/12/21 12:26:21;;;;;;;7.27;5.00;;;9.40;99.90;;;;;;5070578;28;20675;-73
2020/12/21 12:28:46;;;;;;;6.63;3.70;;;9.40;99.90;;;;;;5054617;28;20244;-73
2020/12/21 12:31:17;;;;;;;5.40;4.00;;;9.40;99.90;;;;;;5059249;28;20195;-73
2020/12/21 12:33:42;;;;;;;5.60;4.37;;;9.40;99.90;;;;;;5076190;28;20778;-73
2020/12/21 12:36:08;;;;;;;13.40;4.13;;;9.40;99.90;;;;;;5069992;28;20458;-73
2020/12/21 12:38:34;;;;;;;6.47;4.33;;;9.40;99.90;;;;;;5073842;28;20190;-73
2020/12/21 12:40:59;;;;;;;6.50;4.20;;;9.30;99.90;;;;;;5069049;28;20187;-73
2020/12/21 12:43:24;;;;;;;8.70;4.30;;;9.40;99.90;;;;;;5056458;28;20184;-73
2020/12/21 12:45:50;;;;;;;8.43;5.03;;;9.30;99.90;;;;;;5070702;28;20190;-73
2020/12/21 12:48:15;;;;;;;7.10;4.43;;;9.20;99.90;;;;;;5069448;28;20194;-73
2020/12/21 12:50:41;;;;;;;5.40;4.40;;;9.20;99.90;;;;;;5056323;28;20196;-73
2020/12/21 12:53:06;;;;;;;10.50;5.70;;;9.20;99.90;;;;;;5073723;28;20183;-73
2020/12/21 12:55:33;;;;;;;6.60;4.27;;;9.10;99.90;;;;;;5078385;28;20583;-73